Erie, PA (16506)

11:27 PM EDT op 29 juli 2016 (GMT -0400)
CARTER`S Lawn Care | | Change Station

Hoogte 836 ft 42.07 °N, 80.16 °W | Updated 3 seconds ago

Haze
Heiigheid
74.1 °F
Voelt als 73 °F
N
0.0
Wind Variabel Wind van ONO
Gusts 2.0 mijl/u

Vandaag
Hoog -- | Laag -- °F
--% Kans op neerslag
Gisteren
Hoog -- | Laag -- °F
Precip. -- inches
Druk 29.96 inches
Zicht 5.0 mijlen
Wolken Helder
Warmteindex 73 °F
Dauwpunt 70 °F
Vochtigheid 86%
Neerslag 0.00 inches
Dikte sneeuw Niet beschikbaar.
6:11 AM 8:42 PM
Afnemende halvemaan, 17% visible
METAR KERI 300251Z 06005KT 5SM HZ CLR 24/19 A2997 RMK AO2 SLP145 T02390194 50008
Druk 29.96 inches
Zicht 5.0 mijlen
Wolken Helder
Warmteindex 73 °F
Dauwpunt 70 °F
Vochtigheid 86%
Neerslag 0.00 inches
Dikte sneeuw Niet beschikbaar.
6:11 AM 8:42 PM
Afnemende halvemaan, 17% visible
METAR KERI 300251Z 06005KT 5SM HZ CLR 24/19 A2997 RMK AO2 SLP145 T02390194 50008

10-Day Weather Forecast

Almanac

Astronomie

Jul. 29, 2016 Opkomst Ondergang
Werkelijke tijd
Burgerlijke schemering
Nautische schemering
Astronomische schemering
Maan
Golflengte van het zichtbare licht
Daglengte
Tomorrow will be .
, % of the Moon is Illuminated

Extremen vandaag

State Highs State Lows

Community

WunderPhotos

Upload Photos

1,928,497 foto’s ge-upload!

WunderBlog® & News

Nearby

Luchtkwaliteit

  Luchtkwaliteit LK-index Verontreinigende stof
Not available.

Dikte sneeuw

Station Depth Geometrische hoogte

Aardbevingen

Stad Distance Mag. Time & Date
Minimum magnitude displayed is 2.5.

Watertemperatuur langs de kust

Plaats Temperatuur

Stations

Nabije weerstations

Locatie station Temp. Gevoelstemperatuur Dauwpunt Vochtigheid Wind Precip. Hoogte Geactualiseerd Type
                   

Watches & Warnings

There are currently no watches in effect.